createdAt,value
2023-10-29T00:04:46.200Z,90.83
2023-10-29T00:09:45.927Z,90.93
2023-10-29T00:14:46.014Z,91.03
2023-10-29T00:19:45.800Z,90.63
2023-10-29T00:24:45.916Z,90.93
2023-10-29T00:29:45.689Z,90.72
2023-10-29T00:34:45.804Z,90.72
2023-10-29T00:39:45.525Z,89.70
2023-10-29T00:44:45.566Z,89.66
2023-10-29T00:49:45.389Z,88.44
2023-10-29T00:54:45.327Z,86.87
2023-10-29T00:59:45.312Z,87.04
2023-10-29T01:04:45.198Z,87.75
2023-10-29T01:09:45.123Z,88.40
2023-10-29T01:14:45.224Z,89.22
2023-10-29T01:19:45.006Z,90.03
2023-10-29T01:24:44.962Z,89.63
2023-10-29T01:29:44.901Z,90.13
2023-10-29T01:34:44.792Z,89.93
2023-10-29T01:39:44.717Z,89.42
2023-10-29T01:44:44.679Z,88.36
2023-10-29T01:49:44.619Z,88.36
2023-10-29T01:54:44.512Z,88.36
2023-10-29T01:59:44.485Z,88.97
2023-10-29T02:04:44.390Z,89.58
2023-10-29T02:09:44.313Z,90.33
2023-10-29T02:14:44.303Z,90.85
2023-10-29T02:19:44.190Z,90.33
2023-10-29T02:24:44.118Z,90.85
2023-10-29T02:29:44.079Z,90.54
2023-10-29T02:34:43.979Z,90.48
2023-10-29T02:39:43.918Z,90.28
2023-10-29T02:44:43.855Z,89.87
2023-10-29T02:49:43.773Z,89.83
2023-10-29T02:54:43.725Z,90.17
2023-10-29T02:59:43.680Z,89.22
2023-10-29T03:04:43.582Z,89.11
2023-10-29T03:09:43.508Z,89.01
2023-10-29T03:14:43.460Z,89.72
2023-10-29T03:19:43.372Z,90.28
2023-10-29T03:24:43.302Z,90.07
2023-10-29T03:29:43.262Z,90.78
2023-10-29T03:34:43.166Z,90.99
2023-10-29T03:39:43.115Z,90.68
2023-10-29T03:44:43.084Z,90.28
2023-10-29T03:49:42.985Z,90.07
2023-10-29T03:54:42.903Z,90.38
2023-10-29T03:59:42.921Z,89.01
2023-10-29T04:04:45.820Z,88.70
2023-10-29T04:09:42.705Z,87.04
2023-10-29T04:14:42.664Z,86.32
2023-10-29T04:19:42.581Z,85.88
2023-10-29T04:24:42.511Z,85.06
2023-10-29T04:29:42.451Z,85.36
2023-10-29T04:34:42.368Z,85.20
2023-10-29T04:39:42.299Z,85.00
2023-10-29T04:44:42.262Z,84.28
2023-10-29T04:49:42.178Z,83.88
2023-10-29T04:54:42.105Z,84.08
2023-10-29T04:59:42.056Z,83.88
2023-10-29T05:04:41.983Z,83.67
2023-10-29T05:09:41.901Z,83.06
2023-10-29T05:14:41.884Z,82.86
2023-10-29T05:19:41.752Z,83.17
2023-10-29T05:24:41.712Z,83.37
2023-10-29T05:29:41.682Z,82.65
2023-10-29T05:34:41.570Z,82.76
2023-10-29T05:39:41.496Z,82.04
2023-10-29T05:44:41.469Z,81.95
2023-10-29T05:49:41.375Z,82.25
2023-10-29T05:54:41.299Z,82.65
2023-10-29T05:59:41.237Z,82.25
2023-10-29T06:04:41.276Z,81.64
2023-10-29T06:09:41.118Z,80.28
2023-10-29T06:14:41.073Z,80.48
2023-10-29T06:19:40.954Z,79.77
2023-10-29T06:24:40.922Z,79.22
2023-10-29T06:29:40.917Z,78.92
2023-10-29T06:34:40.769Z,78.88
2023-10-29T06:39:40.693Z,82.54
2023-10-29T06:44:40.653Z,79.19
2023-10-29T06:49:40.548Z,78.78
2023-10-29T06:54:40.491Z,77.77
2023-10-29T06:59:40.448Z,76.71
2023-10-29T07:04:40.390Z,76.61
2023-10-29T07:09:40.300Z,75.25
2023-10-29T07:14:40.284Z,75.76
2023-10-29T07:19:40.177Z,75.66
2023-10-29T07:24:40.109Z,76.47
2023-10-29T07:29:40.066Z,75.52
2023-10-29T07:34:39.974Z,73.76
2023-10-29T07:39:39.919Z,73.73
2023-10-29T07:44:39.880Z,73.22
2023-10-29T07:49:39.815Z,72.10
2023-10-29T07:54:39.716Z,72.71
2023-10-29T07:59:39.745Z,72.61
2023-10-29T08:04:39.583Z,72.21
2023-10-29T08:09:39.506Z,73.32
2023-10-29T08:14:39.510Z,73.42
2023-10-29T08:19:39.376Z,72.10
2023-10-29T08:24:39.306Z,72.47
2023-10-29T08:29:39.419Z,72.03
2023-10-29T08:34:39.177Z,71.43
2023-10-29T08:39:39.115Z,72.44
2023-10-29T08:44:39.091Z,72.27
2023-10-29T08:49:38.977Z,72.27
2023-10-29T08:54:38.918Z,72.98
2023-10-29T08:59:38.934Z,73.49
2023-10-29T09:04:38.775Z,74.30
2023-10-29T09:09:38.729Z,74.47
2023-10-29T09:14:38.644Z,74.77
2023-10-29T09:19:38.562Z,74.47
2023-10-29T09:24:38.494Z,73.66
2023-10-29T09:29:38.457Z,73.55
2023-10-29T09:34:38.361Z,74.57
2023-10-29T09:39:38.290Z,74.26
2023-10-29T09:44:38.260Z,73.86
2023-10-29T09:49:38.154Z,73.62
2023-10-29T09:54:38.178Z,74.03
2023-10-29T09:59:38.051Z,73.42
2023-10-29T10:04:37.986Z,73.08
2023-10-29T10:09:37.878Z,73.99
2023-10-29T10:14:37.845Z,74.60
2023-10-29T10:19:37.750Z,75.41
2023-10-29T10:24:37.670Z,74.60
2023-10-29T10:29:37.680Z,74.13
2023-10-29T10:34:37.576Z,74.84
2023-10-29T10:39:37.475Z,74.84
2023-10-29T10:44:37.402Z,75.61
2023-10-29T10:49:37.344Z,76.31
2023-10-29T10:54:37.263Z,75.51
2023-10-29T10:59:37.193Z,75.00
2023-10-29T11:04:37.364Z,75.10
2023-10-29T11:09:37.058Z,76.31
2023-10-29T11:14:37.001Z,75.64
2023-10-29T11:19:37.067Z,76.96
2023-10-29T11:24:38.734Z,76.96
2023-10-29T11:29:36.782Z,78.51
2023-10-29T11:34:36.756Z,79.12
2023-10-29T11:39:36.650Z,79.73
2023-10-29T11:44:36.597Z,79.32
2023-10-29T11:49:36.522Z,79.08
2023-10-29T11:54:36.468Z,79.38
2023-10-29T11:59:36.393Z,79.08
2023-10-29T12:04:36.380Z,79.32
2023-10-29T12:09:36.254Z,78.51
2023-10-29T12:14:36.199Z,77.77
2023-10-29T12:19:36.114Z,77.16
2023-10-29T12:24:36.066Z,76.38
2023-10-29T12:29:35.986Z,74.49
2023-10-29T12:34:35.941Z,73.35
2023-10-29T12:39:35.845Z,73.79
2023-10-29T12:44:35.794Z,74.53
2023-10-29T12:49:35.725Z,75.57
2023-10-29T12:54:35.652Z,76.18
2023-10-29T12:59:35.590Z,76.18
2023-10-29T13:04:35.531Z,76.48
2023-10-29T13:09:35.458Z,76.98
2023-10-29T13:14:35.397Z,76.58
2023-10-29T13:19:35.325Z,78.57
2023-10-29T13:24:35.264Z,75.70
2023-10-29T13:29:35.191Z,76.20
2023-10-29T13:34:35.131Z,76.55
2023-10-29T13:39:35.064Z,77.86
2023-10-29T13:44:34.979Z,78.71
2023-10-29T13:49:34.921Z,79.65
2023-10-29T13:54:34.857Z,79.55
2023-10-29T13:59:34.802Z,79.65
2023-10-29T14:04:34.751Z,80.20
2023-10-29T14:09:34.672Z,81.10
2023-10-29T14:14:34.612Z,82.22
2023-10-29T14:19:34.538Z,83.43
2023-10-29T14:24:34.674Z,83.67
2023-10-29T14:29:34.421Z,83.77
2023-10-29T14:34:34.335Z,83.37
2023-10-29T14:39:34.270Z,84.38
2023-10-29T14:44:34.200Z,84.89
2023-10-29T14:49:34.592Z,84.38
2023-10-29T14:54:34.068Z,83.77
2023-10-29T14:59:33.995Z,84.08
2023-10-29T15:04:33.925Z,83.91
2023-10-29T15:09:33.881Z,83.71
2023-10-29T15:14:33.794Z,83.00
2023-10-29T15:19:36.885Z,82.70
2023-10-29T15:24:33.662Z,83.00
2023-10-29T15:29:33.593Z,83.20
2023-10-29T15:34:33.530Z,83.00
2023-10-29T15:39:33.565Z,83.41
2023-10-29T15:44:33.409Z,83.55
2023-10-29T15:49:33.339Z,83.75
2023-10-29T15:54:33.269Z,83.34
2023-10-29T15:59:33.196Z,82.44
2023-10-29T16:04:33.165Z,81.73
2023-10-29T16:09:33.073Z,81.32
2023-10-29T16:14:32.994Z,80.92
2023-10-29T16:19:32.946Z,80.71
2023-10-29T16:24:32.858Z,80.10
2023-10-29T16:29:32.798Z,79.70
2023-10-29T16:34:32.845Z,79.46
2023-10-29T16:39:32.669Z,78.85
2023-10-29T16:44:32.589Z,79.05
2023-10-29T16:49:32.537Z,79.26
2023-10-29T16:54:32.491Z,79.05
2023-10-29T16:59:32.392Z,79.19
2023-10-29T17:04:34.071Z,79.70
2023-10-29T17:09:32.304Z,79.60
2023-10-29T17:14:32.174Z,80.41
2023-10-29T17:19:32.110Z,80.31
2023-10-29T17:24:32.110Z,80.71
2023-10-29T17:29:31.974Z,81.22
2023-10-29T17:34:34.245Z,83.04
2023-10-29T17:39:31.887Z,83.75
2023-10-29T17:44:31.767Z,85.41
2023-10-29T17:49:31.708Z,88.04
2023-10-29T17:54:31.707Z,89.20
2023-10-29T17:59:31.596Z,91.63
2023-10-29T18:04:31.527Z,93.10
2023-10-29T18:09:31.469Z,93.95
2023-10-29T18:14:31.356Z,94.67
2023-10-29T18:19:31.291Z,96.03
2023-10-29T18:24:31.266Z,96.74
2023-10-29T18:29:31.144Z,97.39
2023-10-29T18:34:31.096Z,98.10
2023-10-29T18:39:31.031Z,98.55
2023-10-29T18:44:31.029Z,98.55
2023-10-29T18:49:30.873Z,98.76
2023-10-29T18:54:30.829Z,98.86
2023-10-29T18:59:30.751Z,99.01
2023-10-29T19:04:30.672Z,99.42
2023-10-29T19:09:30.676Z,99.11
2023-10-29T19:14:30.557Z,98.91
2023-10-29T19:19:30.495Z,99.11
2023-10-29T19:24:30.501Z,98.91
2023-10-29T19:29:30.359Z,98.60
2023-10-29T19:34:30.329Z,98.71
2023-10-29T19:39:30.289Z,98.10
2023-10-29T19:44:30.159Z,97.99
2023-10-29T19:49:30.102Z,96.88
2023-10-29T19:54:30.057Z,96.47
2023-10-29T19:59:30.014Z,95.92
2023-10-29T20:04:29.925Z,94.70
2023-10-29T20:09:29.859Z,93.37
2023-10-29T20:14:29.755Z,92.77
2023-10-29T20:19:29.873Z,92.77
2023-10-29T20:24:29.645Z,92.97
2023-10-29T20:29:29.559Z,93.07
2023-10-29T20:34:29.478Z,92.36
2023-10-29T20:39:29.440Z,91.75
2023-10-29T20:44:29.355Z,92.05
2023-10-29T20:49:29.302Z,91.65
2023-10-29T20:54:29.302Z,91.34
2023-10-29T20:59:29.331Z,91.65
2023-10-29T21:04:29.187Z,91.75
2023-10-29T21:09:29.060Z,92.20
2023-10-29T21:14:28.964Z,92.30
2023-10-29T21:19:30.669Z,92.40
2023-10-29T21:24:28.869Z,92.30
2023-10-29T21:29:28.783Z,92.30
2023-10-29T21:34:28.700Z,92.44
2023-10-29T21:39:28.675Z,92.65
2023-10-29T21:44:28.555Z,93.06
2023-10-29T21:49:28.484Z,93.06
2023-10-29T21:54:28.445Z,93.06
2023-10-29T21:59:28.350Z,93.16
2023-10-29T22:04:28.326Z,92.95
2023-10-29T22:09:28.269Z,92.95
2023-10-29T22:14:28.142Z,93.31
2023-10-29T22:19:28.076Z,93.81
2023-10-29T22:24:28.059Z,94.37
2023-10-29T22:29:27.939Z,94.67
2023-10-29T22:34:27.883Z,95.22
2023-10-29T22:39:27.828Z,95.53
2023-10-29T22:44:27.745Z,95.73
2023-10-29T22:49:27.686Z,95.63
2023-10-29T22:54:27.668Z,95.33
2023-10-29T22:59:27.541Z,94.92
2023-10-29T23:04:27.618Z,94.61
2023-10-29T23:09:27.436Z,94.41
2023-10-29T23:14:27.346Z,93.90
2023-10-29T23:19:27.283Z,93.09
2023-10-29T23:24:27.214Z,91.92
2023-10-29T23:29:27.150Z,91.52
2023-10-29T23:34:27.070Z,91.61
2023-10-29T23:39:27.026Z,91.82
2023-10-29T23:44:26.938Z,91.92
2023-10-29T23:49:26.916Z,92.13
2023-10-29T23:54:26.874Z,92.48
2023-10-29T23:59:26.735Z,92.57
